East Texas Regional Airport
KGGG : now visible

Airfield :











YOU CAN JOIN US ON...

 
LOGIN :

Register | Disclaimer

   EN    FR    IT 

 









Legend :    VFR   Marginal VFR   IFR   Intensive IFR   Very Intensive IFR
Visi :
Ceiling :
>= 8 km
>= 3000ft
5 to 8 km
1000 to 3000 ft
1500m to 5 km
500 to 1000 ft
800 to 1500m
200 to 500 ft
< 800m
< 200 ft
Symbols :   Thunderstorms  Fog  Heavy snow  Heavy precipitations  Wind > 20 kt






- Airport Elevation : 365 ft
- IATA code : GGG


KGGG - East Texas Regional

CURRENT METAR :
  • 082000Z 17012KT 8SM CLR 16/M01 A2994 RMK AO2 T01561011

EXPIRED METARs :
  • 081953Z 16014KT 8SM OVC012 16/M02 A2994 RMK AO2 SLP138 T01561017
  • 081900Z 17010KT 10SM BKN012 14/M01 A2998 RMK AO2 PRESFR T01391011
  • 081853Z 15011KT 5SM HZ OVC007 13/M01 A3000 RMK AO2 SLP158 T01331011
  • 081753Z 18011KT 6SM HZ OVC007 12/M01 A3005 RMK AO2 SLP177 T01171011 10117 20083 58014

TAF KGGG
Valid from the 08 at 18:00 until the 09 at 18:00 UTC


081720Z 0818/0918 18013G19KT 6SM HZ OVC250
FM090500 18019KT 6SM BR OVC025
FM091200 21015G21KT 4SM BR OVC015



MET'MAP, your aeronautical weather chart ! - Copyright ORBIFLY December 2007 - Disclaimer

ORBIFLY MET'MAP TEAM :

Programming & Development : Alexandra Zaïnal
Concept & original design : Baudouin d'Aumeries
Assistance for programming : Marc-Olivier Méhu
Technical & hardware support : Manuel Goepfert

Contact : metmap@orbifly.com




SOURCES & CREDITS :

   NOAA       Earth
Advisory